sensor_id;sensor_type;location;lat;lon;timestamp;P1;durP1;ratioP1;P2;durP2;ratioP2
239;SDS011;104;53.590;10.004;2023-04-24T00:01:05;14.93;;;5.97;;
239;SDS011;104;53.590;10.004;2023-04-24T00:03:32;12.10;;;6.67;;
239;SDS011;104;53.590;10.004;2023-04-24T00:06:00;9.43;;;5.83;;
239;SDS011;104;53.590;10.004;2023-04-24T00:08:27;15.37;;;6.60;;
239;SDS011;104;53.590;10.004;2023-04-24T00:10:55;18.43;;;8.13;;
239;SDS011;104;53.590;10.004;2023-04-24T00:13:23;15.77;;;6.90;;
239;SDS011;104;53.590;10.004;2023-04-24T00:15:51;13.00;;;6.30;;
239;SDS011;104;53.590;10.004;2023-04-24T00:18:18;14.33;;;6.30;;
239;SDS011;104;53.590;10.004;2023-04-24T00:20:45;12.60;;;6.20;;
239;SDS011;104;53.590;10.004;2023-04-24T00:23:13;13.30;;;6.33;;
239;SDS011;104;53.590;10.004;2023-04-24T00:25:40;16.60;;;6.27;;
239;SDS011;104;53.590;10.004;2023-04-24T00:28:07;14.60;;;6.97;;
239;SDS011;104;53.590;10.004;2023-04-24T00:30:36;10.90;;;6.47;;
239;SDS011;104;53.590;10.004;2023-04-24T00:33:03;9.17;;;5.93;;
239;SDS011;104;53.590;10.004;2023-04-24T00:35:31;17.60;;;7.90;;
239;SDS011;104;53.590;10.004;2023-04-24T00:37:58;15.00;;;6.90;;
239;SDS011;104;53.590;10.004;2023-04-24T00:40:27;17.00;;;7.37;;
239;SDS011;104;53.590;10.004;2023-04-24T00:42:55;9.07;;;6.43;;
239;SDS011;104;53.590;10.004;2023-04-24T00:45:22;10.00;;;6.80;;
239;SDS011;104;53.590;10.004;2023-04-24T00:47:51;11.00;;;7.90;;
239;SDS011;104;53.590;10.004;2023-04-24T00:50:19;13.87;;;8.37;;
239;SDS011;104;53.590;10.004;2023-04-24T00:52:47;11.47;;;7.50;;
239;SDS011;104;53.590;10.004;2023-04-24T00:55:15;17.90;;;7.63;;
239;SDS011;104;53.590;10.004;2023-04-24T00:57:43;12.50;;;7.90;;
239;SDS011;104;53.590;10.004;2023-04-24T01:00:11;19.53;;;7.90;;
239;SDS011;104;53.590;10.004;2023-04-24T01:02:39;22.00;;;9.63;;
239;SDS011;104;53.590;10.004;2023-04-24T01:05:10;19.03;;;9.70;;
239;SDS011;104;53.590;10.004;2023-04-24T01:07:38;10.40;;;7.93;;
239;SDS011;104;53.590;10.004;2023-04-24T01:10:06;12.53;;;8.27;;
239;SDS011;104;53.590;10.004;2023-04-24T01:12:34;15.33;;;8.60;;
239;SDS011;104;53.590;10.004;2023-04-24T01:15:01;11.53;;;7.90;;
239;SDS011;104;53.590;10.004;2023-04-24T01:17:30;12.23;;;8.13;;
239;SDS011;104;53.590;10.004;2023-04-24T01:19:58;12.33;;;7.77;;
239;SDS011;104;53.590;10.004;2023-04-24T01:22:27;15.93;;;9.80;;
239;SDS011;104;53.590;10.004;2023-04-24T01:24:54;15.63;;;9.03;;
239;SDS011;104;53.590;10.004;2023-04-24T01:27:22;17.90;;;9.90;;
239;SDS011;104;53.590;10.004;2023-04-24T01:29:49;17.60;;;8.87;;
239;SDS011;104;53.590;10.004;2023-04-24T01:32:17;15.57;;;9.40;;
239;SDS011;104;53.590;10.004;2023-04-24T01:34:45;20.50;;;10.63;;
239;SDS011;104;53.590;10.004;2023-04-24T01:37:12;27.37;;;11.23;;
239;SDS011;104;53.590;10.004;2023-04-24T01:39:42;26.13;;;11.97;;
239;SDS011;104;53.590;10.004;2023-04-24T01:42:09;16.47;;;10.30;;
239;SDS011;104;53.590;10.004;2023-04-24T01:44:37;18.20;;;10.40;;
239;SDS011;104;53.590;10.004;2023-04-24T01:47:04;15.27;;;9.90;;
239;SDS011;104;53.590;10.004;2023-04-24T01:49:32;19.10;;;10.63;;
239;SDS011;104;53.590;10.004;2023-04-24T01:51:59;23.93;;;11.37;;
239;SDS011;104;53.590;10.004;2023-04-24T01:54:27;18.10;;;10.47;;
239;SDS011;104;53.590;10.004;2023-04-24T01:56:55;25.03;;;11.20;;
239;SDS011;104;53.590;10.004;2023-04-24T01:59:23;18.20;;;10.60;;
239;SDS011;104;53.590;10.004;2023-04-24T02:01:51;18.20;;;10.93;;
239;SDS011;104;53.590;10.004;2023-04-24T02:04:18;20.70;;;10.60;;
239;SDS011;104;53.590;10.004;2023-04-24T02:06:45;26.10;;;12.83;;
239;SDS011;104;53.590;10.004;2023-04-24T02:09:12;19.53;;;10.90;;
239;SDS011;104;53.590;10.004;2023-04-24T02:11:40;27.93;;;12.97;;
239;SDS011;104;53.590;10.004;2023-04-24T02:14:08;18.63;;;10.70;;
239;SDS011;104;53.590;10.004;2023-04-24T02:16:36;20.13;;;11.70;;
239;SDS011;104;53.590;10.004;2023-04-24T02:19:03;27.30;;;12.90;;
239;SDS011;104;53.590;10.004;2023-04-24T02:21:30;20.23;;;12.20;;
239;SDS011;104;53.590;10.004;2023-04-24T02:23:57;18.93;;;11.70;;
239;SDS011;104;53.590;10.004;2023-04-24T02:26:25;15.13;;;10.60;;
239;SDS011;104;53.590;10.004;2023-04-24T02:28:52;28.50;;;12.00;;
239;SDS011;104;53.590;10.004;2023-04-24T02:31:21;19.33;;;11.10;;
239;SDS011;104;53.590;10.004;2023-04-24T02:33:48;17.53;;;11.07;;
239;SDS011;104;53.590;10.004;2023-04-24T02:36:15;18.13;;;11.60;;
239;SDS011;104;53.590;10.004;2023-04-24T02:38:43;16.67;;;10.63;;
239;SDS011;104;53.590;10.004;2023-04-24T02:41:10;19.33;;;10.50;;
239;SDS011;104;53.590;10.004;2023-04-24T02:43:37;24.93;;;11.90;;
239;SDS011;104;53.590;10.004;2023-04-24T02:46:05;22.23;;;11.50;;
239;SDS011;104;53.590;10.004;2023-04-24T02:48:33;18.37;;;11.17;;
239;SDS011;104;53.590;10.004;2023-04-24T02:51:00;20.17;;;11.50;;
239;SDS011;104;53.590;10.004;2023-04-24T02:53:28;20.50;;;11.37;;
239;SDS011;104;53.590;10.004;2023-04-24T02:55:56;20.23;;;10.60;;
239;SDS011;104;53.590;10.004;2023-04-24T02:58:23;15.50;;;10.10;;
239;SDS011;104;53.590;10.004;2023-04-24T03:00:52;12.00;;;9.50;;
239;SDS011;104;53.590;10.004;2023-04-24T03:03:20;23.20;;;11.43;;
239;SDS011;104;53.590;10.004;2023-04-24T03:05:49;13.30;;;9.80;;
239;SDS011;104;53.590;10.004;2023-04-24T03:08:16;16.60;;;10.20;;
239;SDS011;104;53.590;10.004;2023-04-24T03:10:44;14.60;;;9.40;;
239;SDS011;104;53.590;10.004;2023-04-24T03:13:11;15.10;;;9.50;;
239;SDS011;104;53.590;10.004;2023-04-24T03:15:38;16.57;;;10.00;;
239;SDS011;104;53.590;10.004;2023-04-24T03:18:05;16.23;;;9.40;;
239;SDS011;104;53.590;10.004;2023-04-24T03:20:33;24.70;;;11.67;;
239;SDS011;104;53.590;10.004;2023-04-24T03:23:03;19.33;;;9.33;;
239;SDS011;104;53.590;10.004;2023-04-24T03:25:30;14.30;;;9.30;;
239;SDS011;104;53.590;10.004;2023-04-24T03:27:58;15.53;;;10.47;;
239;SDS011;104;53.590;10.004;2023-04-24T03:30:25;13.20;;;9.10;;
239;SDS011;104;53.590;10.004;2023-04-24T03:32:52;15.40;;;9.43;;
239;SDS011;104;53.590;10.004;2023-04-24T03:35:20;16.40;;;10.57;;
239;SDS011;104;53.590;10.004;2023-04-24T03:37:47;14.10;;;9.70;;
239;SDS011;104;53.590;10.004;2023-04-24T03:40:16;17.40;;;9.83;;
239;SDS011;104;53.590;10.004;2023-04-24T03:42:43;16.63;;;9.60;;
239;SDS011;104;53.590;10.004;2023-04-24T03:45:11;17.47;;;9.30;;
239;SDS011;104;53.590;10.004;2023-04-24T03:47:38;13.33;;;8.87;;
239;SDS011;104;53.590;10.004;2023-04-24T03:50:06;15.07;;;9.70;;
239;SDS011;104;53.590;10.004;2023-04-24T03:52:33;17.00;;;9.00;;
239;SDS011;104;53.590;10.004;2023-04-24T03:55:00;16.23;;;10.10;;
239;SDS011;104;53.590;10.004;2023-04-24T03:57:29;18.53;;;9.53;;
239;SDS011;104;53.590;10.004;2023-04-24T03:59:56;16.50;;;9.60;;
239;SDS011;104;53.590;10.004;2023-04-24T04:02:23;16.00;;;9.80;;
239;SDS011;104;53.590;10.004;2023-04-24T04:04:50;15.43;;;10.17;;
239;SDS011;104;53.590;10.004;2023-04-24T04:07:18;19.13;;;9.40;;
239;SDS011;104;53.590;10.004;2023-04-24T04:09:45;19.23;;;9.63;;
239;SDS011;104;53.590;10.004;2023-04-24T04:12:12;13.80;;;9.43;;
239;SDS011;104;53.590;10.004;2023-04-24T04:14:41;14.67;;;9.60;;
239;SDS011;104;53.590;10.004;2023-04-24T04:17:08;12.63;;;9.03;;
239;SDS011;104;53.590;10.004;2023-04-24T04:19:35;13.90;;;10.10;;
239;SDS011;104;53.590;10.004;2023-04-24T04:22:02;18.90;;;10.47;;
239;SDS011;104;53.590;10.004;2023-04-24T04:24:30;16.70;;;9.83;;
239;SDS011;104;53.590;10.004;2023-04-24T04:26:57;13.70;;;9.57;;
239;SDS011;104;53.590;10.004;2023-04-24T04:29:25;13.00;;;9.00;;
239;SDS011;104;53.590;10.004;2023-04-24T04:31:54;22.83;;;9.73;;
239;SDS011;104;53.590;10.004;2023-04-24T04:34:21;19.10;;;10.77;;
239;SDS011;104;53.590;10.004;2023-04-24T04:36:48;17.43;;;10.03;;
239;SDS011;104;53.590;10.004;2023-04-24T04:39:16;16.07;;;9.43;;
239;SDS011;104;53.590;10.004;2023-04-24T04:41:43;16.50;;;10.60;;
239;SDS011;104;53.590;10.004;2023-04-24T04:44:11;17.87;;;10.80;;
239;SDS011;104;53.590;10.004;2023-04-24T04:46:39;15.00;;;9.47;;
239;SDS011;104;53.590;10.004;2023-04-24T04:49:08;11.87;;;9.20;;
239;SDS011;104;53.590;10.004;2023-04-24T04:51:36;13.77;;;9.90;;
239;SDS011;104;53.590;10.004;2023-04-24T04:54:03;13.97;;;9.37;;
239;SDS011;104;53.590;10.004;2023-04-24T04:56:30;19.00;;;10.73;;
239;SDS011;104;53.590;10.004;2023-04-24T04:58:57;17.13;;;9.33;;
239;SDS011;104;53.590;10.004;2023-04-24T05:01:25;15.63;;;9.30;;
239;SDS011;104;53.590;10.004;2023-04-24T05:03:52;14.67;;;9.03;;
239;SDS011;104;53.590;10.004;2023-04-24T05:06:21;12.67;;;8.90;;
239;SDS011;104;53.590;10.004;2023-04-24T05:08:48;15.40;;;8.80;;
239;SDS011;104;53.590;10.004;2023-04-24T05:11:16;13.30;;;9.20;;
239;SDS011;104;53.590;10.004;2023-04-24T05:13:43;13.27;;;8.90;;
239;SDS011;104;53.590;10.004;2023-04-24T05:16:10;21.03;;;10.60;;
239;SDS011;104;53.590;10.004;2023-04-24T05:18:37;12.63;;;8.07;;
239;SDS011;104;53.590;10.004;2023-04-24T05:21:05;13.80;;;8.47;;
239;SDS011;104;53.590;10.004;2023-04-24T05:23:33;11.90;;;7.90;;
239;SDS011;104;53.590;10.004;2023-04-24T05:26:01;13.87;;;8.03;;
239;SDS011;104;53.590;10.004;2023-04-24T05:28:28;12.80;;;8.30;;
239;SDS011;104;53.590;10.004;2023-04-24T05:30:55;11.60;;;7.53;;
239;SDS011;104;53.590;10.004;2023-04-24T05:33:24;12.50;;;7.80;;
239;SDS011;104;53.590;10.004;2023-04-24T05:35:51;14.40;;;7.30;;
239;SDS011;104;53.590;10.004;2023-04-24T05:38:18;11.83;;;8.03;;
239;SDS011;104;53.590;10.004;2023-04-24T05:40:47;11.27;;;7.90;;
239;SDS011;104;53.590;10.004;2023-04-24T05:43:14;11.17;;;7.23;;
239;SDS011;104;53.590;10.004;2023-04-24T05:45:41;20.07;;;7.90;;
239;SDS011;104;53.590;10.004;2023-04-24T05:48:09;12.87;;;7.43;;
239;SDS011;104;53.590;10.004;2023-04-24T05:50:36;12.13;;;6.40;;
239;SDS011;104;53.590;10.004;2023-04-24T05:53:03;11.70;;;6.40;;
239;SDS011;104;53.590;10.004;2023-04-24T05:55:32;9.33;;;5.97;;
239;SDS011;104;53.590;10.004;2023-04-24T05:58:00;10.00;;;5.97;;
239;SDS011;104;53.590;10.004;2023-04-24T06:00:28;7.00;;;5.43;;
239;SDS011;104;53.590;10.004;2023-04-24T06:02:55;8.73;;;5.47;;
239;SDS011;104;53.590;10.004;2023-04-24T06:05:22;19.67;;;6.00;;
239;SDS011;104;53.590;10.004;2023-04-24T06:07:53;9.03;;;5.67;;
239;SDS011;104;53.590;10.004;2023-04-24T06:10:20;14.00;;;6.57;;
239;SDS011;104;53.590;10.004;2023-04-24T06:12:48;6.07;;;5.00;;
239;SDS011;104;53.590;10.004;2023-04-24T06:15:16;8.43;;;5.80;;
239;SDS011;104;53.590;10.004;2023-04-24T06:17:44;12.53;;;7.13;;
239;SDS011;104;53.590;10.004;2023-04-24T06:20:11;6.33;;;5.13;;
239;SDS011;104;53.590;10.004;2023-04-24T06:22:39;21.37;;;8.30;;
239;SDS011;104;53.590;10.004;2023-04-24T06:25:06;13.70;;;7.17;;
239;SDS011;104;53.590;10.004;2023-04-24T06:27:34;9.13;;;5.70;;
239;SDS011;104;53.590;10.004;2023-04-24T06:30:01;9.40;;;6.17;;
239;SDS011;104;53.590;10.004;2023-04-24T06:32:30;27.03;;;10.30;;
239;SDS011;104;53.590;10.004;2023-04-24T06:34:57;13.60;;;7.10;;
239;SDS011;104;53.590;10.004;2023-04-24T06:37:24;21.40;;;6.53;;
239;SDS011;104;53.590;10.004;2023-04-24T06:39:51;19.23;;;7.40;;
239;SDS011;104;53.590;10.004;2023-04-24T06:42:18;9.50;;;6.57;;
239;SDS011;104;53.590;10.004;2023-04-24T06:44:47;10.93;;;6.87;;
239;SDS011;104;53.590;10.004;2023-04-24T06:47:14;14.90;;;7.17;;
239;SDS011;104;53.590;10.004;2023-04-24T06:49:43;8.37;;;6.20;;
239;SDS011;104;53.590;10.004;2023-04-24T06:52:10;11.50;;;6.60;;
239;SDS011;104;53.590;10.004;2023-04-24T06:54:37;12.17;;;7.50;;
239;SDS011;104;53.590;10.004;2023-04-24T06:57:04;10.97;;;7.50;;
239;SDS011;104;53.590;10.004;2023-04-24T06:59:32;10.63;;;6.67;;
239;SDS011;104;53.590;10.004;2023-04-24T07:01:59;11.10;;;6.53;;
239;SDS011;104;53.590;10.004;2023-04-24T07:04:26;13.40;;;7.13;;
239;SDS011;104;53.590;10.004;2023-04-24T07:06:55;9.80;;;6.70;;
239;SDS011;104;53.590;10.004;2023-04-24T07:09:23;8.00;;;5.87;;
239;SDS011;104;53.590;10.004;2023-04-24T07:11:50;11.70;;;6.50;;
239;SDS011;104;53.590;10.004;2023-04-24T07:14:18;10.20;;;6.40;;
239;SDS011;104;53.590;10.004;2023-04-24T07:16:45;15.33;;;7.40;;
239;SDS011;104;53.590;10.004;2023-04-24T07:19:13;9.70;;;5.67;;
239;SDS011;104;53.590;10.004;2023-04-24T07:21:40;15.47;;;7.70;;
239;SDS011;104;53.590;10.004;2023-04-24T07:24:09;13.53;;;7.17;;
239;SDS011;104;53.590;10.004;2023-04-24T07:26:38;12.80;;;6.00;;
239;SDS011;104;53.590;10.004;2023-04-24T07:29:05;14.10;;;6.17;;
239;SDS011;104;53.590;10.004;2023-04-24T07:31:33;13.03;;;6.93;;
239;SDS011;104;53.590;10.004;2023-04-24T07:34:00;10.33;;;5.53;;
239;SDS011;104;53.590;10.004;2023-04-24T07:36:27;9.30;;;5.67;;
239;SDS011;104;53.590;10.004;2023-04-24T07:38:54;10.27;;;5.67;;
239;SDS011;104;53.590;10.004;2023-04-24T07:41:23;15.53;;;5.67;;
239;SDS011;104;53.590;10.004;2023-04-24T07:43:52;8.80;;;5.23;;
239;SDS011;104;53.590;10.004;2023-04-24T07:46:20;6.53;;;4.53;;
239;SDS011;104;53.590;10.004;2023-04-24T07:48:48;14.50;;;6.73;;
239;SDS011;104;53.590;10.004;2023-04-24T07:51:15;7.20;;;4.90;;
239;SDS011;104;53.590;10.004;2023-04-24T07:53:43;9.47;;;4.87;;
239;SDS011;104;53.590;10.004;2023-04-24T07:56:10;10.27;;;5.67;;
239;SDS011;104;53.590;10.004;2023-04-24T07:58:39;16.80;;;6.70;;
239;SDS011;104;53.590;10.004;2023-04-24T08:01:06;9.40;;;4.67;;
239;SDS011;104;53.590;10.004;2023-04-24T08:03:33;9.17;;;5.07;;
239;SDS011;104;53.590;10.004;2023-04-24T08:06:00;10.17;;;5.67;;
239;SDS011;104;53.590;10.004;2023-04-24T08:08:28;6.77;;;3.80;;
239;SDS011;104;53.590;10.004;2023-04-24T08:10:55;7.63;;;4.70;;
239;SDS011;104;53.590;10.004;2023-04-24T08:13:22;5.90;;;4.47;;
239;SDS011;104;53.590;10.004;2023-04-24T08:15:51;10.70;;;4.70;;
239;SDS011;104;53.590;10.004;2023-04-24T08:18:18;6.00;;;3.80;;
239;SDS011;104;53.590;10.004;2023-04-24T08:20:46;22.43;;;6.03;;
239;SDS011;104;53.590;10.004;2023-04-24T08:23:13;8.47;;;4.17;;
239;SDS011;104;53.590;10.004;2023-04-24T08:25:40;13.00;;;4.47;;
239;SDS011;104;53.590;10.004;2023-04-24T08:28:08;9.47;;;4.03;;
239;SDS011;104;53.590;10.004;2023-04-24T08:30:35;9.43;;;3.50;;
239;SDS011;104;53.590;10.004;2023-04-24T08:33:07;5.30;;;3.10;;
239;SDS011;104;53.590;10.004;2023-04-24T08:35:35;13.53;;;4.43;;
239;SDS011;104;53.590;10.004;2023-04-24T08:38:02;5.67;;;3.57;;
239;SDS011;104;53.590;10.004;2023-04-24T08:40:29;5.50;;;3.73;;
239;SDS011;104;53.590;10.004;2023-04-24T08:42:59;10.33;;;3.77;;
239;SDS011;104;53.590;10.004;2023-04-24T08:45:26;12.17;;;4.20;;
239;SDS011;104;53.590;10.004;2023-04-24T08:47:53;5.53;;;3.47;;
239;SDS011;104;53.590;10.004;2023-04-24T08:50:22;5.33;;;3.60;;
239;SDS011;104;53.590;10.004;2023-04-24T08:52:49;4.83;;;3.60;;
239;SDS011;104;53.590;10.004;2023-04-24T08:55:18;7.23;;;3.43;;
239;SDS011;104;53.590;10.004;2023-04-24T08:57:49;6.43;;;3.87;;
239;SDS011;104;53.590;10.004;2023-04-24T09:00:17;7.43;;;3.90;;
239;SDS011;104;53.590;10.004;2023-04-24T09:02:45;7.50;;;4.27;;
239;SDS011;104;53.590;10.004;2023-04-24T09:05:13;15.57;;;4.53;;
239;SDS011;104;53.590;10.004;2023-04-24T09:07:43;6.13;;;4.03;;
239;SDS011;104;53.590;10.004;2023-04-24T09:10:12;9.83;;;4.50;;
239;SDS011;104;53.590;10.004;2023-04-24T09:12:40;6.57;;;4.10;;
239;SDS011;104;53.590;10.004;2023-04-24T09:15:08;11.07;;;4.43;;
239;SDS011;104;53.590;10.004;2023-04-24T09:17:35;5.47;;;3.57;;
239;SDS011;104;53.590;10.004;2023-04-24T09:20:03;5.83;;;3.90;;
239;SDS011;104;53.590;10.004;2023-04-24T09:22:30;11.13;;;3.90;;
239;SDS011;104;53.590;10.004;2023-04-24T09:25:05;10.83;;;5.07;;
239;SDS011;104;53.590;10.004;2023-04-24T09:27:34;7.77;;;4.30;;
239;SDS011;104;53.590;10.004;2023-04-24T09:30:01;16.03;;;3.97;;
239;SDS011;104;53.590;10.004;2023-04-24T09:32:29;8.70;;;4.50;;
239;SDS011;104;53.590;10.004;2023-04-24T09:35:06;4.40;;;3.40;;
239;SDS011;104;53.590;10.004;2023-04-24T09:37:35;6.60;;;3.73;;
239;SDS011;104;53.590;10.004;2023-04-24T09:40:10;6.90;;;3.80;;
239;SDS011;104;53.590;10.004;2023-04-24T09:42:38;13.63;;;4.00;;
239;SDS011;104;53.590;10.004;2023-04-24T09:45:08;18.73;;;7.37;;
239;SDS011;104;53.590;10.004;2023-04-24T09:47:36;14.83;;;5.13;;
239;SDS011;104;53.590;10.004;2023-04-24T09:50:10;8.40;;;4.20;;
239;SDS011;104;53.590;10.004;2023-04-24T09:52:41;14.50;;;6.33;;
239;SDS011;104;53.590;10.004;2023-04-24T09:55:18;6.73;;;3.67;;
239;SDS011;104;53.590;10.004;2023-04-24T09:57:50;9.10;;;4.37;;
239;SDS011;104;53.590;10.004;2023-04-24T10:00:18;8.57;;;4.10;;
239;SDS011;104;53.590;10.004;2023-04-24T10:02:49;4.60;;;3.93;;
239;SDS011;104;53.590;10.004;2023-04-24T10:05:17;7.90;;;5.20;;
239;SDS011;104;53.590;10.004;2023-04-24T10:07:44;7.23;;;4.23;;
239;SDS011;104;53.590;10.004;2023-04-24T10:10:11;5.80;;;3.43;;
239;SDS011;104;53.590;10.004;2023-04-24T10:12:40;6.83;;;3.43;;
239;SDS011;104;53.590;10.004;2023-04-24T10:15:09;4.67;;;3.20;;
239;SDS011;104;53.590;10.004;2023-04-24T10:17:39;4.23;;;3.60;;
239;SDS011;104;53.590;10.004;2023-04-24T10:20:07;5.53;;;3.83;;
239;SDS011;104;53.590;10.004;2023-04-24T10:22:35;12.03;;;5.30;;
239;SDS011;104;53.590;10.004;2023-04-24T10:25:03;10.83;;;4.60;;
239;SDS011;104;53.590;10.004;2023-04-24T10:27:31;12.90;;;5.97;;
239;SDS011;104;53.590;10.004;2023-04-24T10:30:00;6.87;;;4.20;;
239;SDS011;104;53.590;10.004;2023-04-24T10:32:28;7.53;;;4.10;;
239;SDS011;104;53.590;10.004;2023-04-24T10:34:55;5.90;;;4.00;;
239;SDS011;104;53.590;10.004;2023-04-24T10:37:23;15.47;;;6.93;;
239;SDS011;104;53.590;10.004;2023-04-24T10:39:51;9.77;;;5.07;;
239;SDS011;104;53.590;10.004;2023-04-24T10:42:19;5.83;;;3.83;;
239;SDS011;104;53.590;10.004;2023-04-24T10:44:48;14.33;;;4.77;;
239;SDS011;104;53.590;10.004;2023-04-24T10:47:16;29.67;;;7.10;;
239;SDS011;104;53.590;10.004;2023-04-24T10:49:44;8.60;;;4.57;;
239;SDS011;104;53.590;10.004;2023-04-24T10:52:13;4.63;;;3.33;;
239;SDS011;104;53.590;10.004;2023-04-24T10:54:42;7.67;;;5.00;;
239;SDS011;104;53.590;10.004;2023-04-24T10:57:26;8.93;;;4.57;;
239;SDS011;104;53.590;10.004;2023-04-24T11:00:10;6.03;;;4.90;;
239;SDS011;104;53.590;10.004;2023-04-24T11:02:41;6.93;;;3.60;;
239;SDS011;104;53.590;10.004;2023-04-24T11:05:14;20.23;;;10.13;;
239;SDS011;104;53.590;10.004;2023-04-24T11:10:28;7.00;;;4.37;;
239;SDS011;104;53.590;10.004;2023-04-24T11:12:55;16.27;;;6.90;;
239;SDS011;104;53.590;10.004;2023-04-24T11:15:22;8.10;;;5.37;;
239;SDS011;104;53.590;10.004;2023-04-24T11:17:51;18.23;;;4.60;;
239;SDS011;104;53.590;10.004;2023-04-24T11:20:22;24.27;;;11.00;;
239;SDS011;104;53.590;10.004;2023-04-24T11:22:52;16.90;;;9.30;;
239;SDS011;104;53.590;10.004;2023-04-24T11:25:20;6.47;;;4.27;;
239;SDS011;104;53.590;10.004;2023-04-24T11:27:48;14.87;;;5.73;;
239;SDS011;104;53.590;10.004;2023-04-24T11:30:17;14.20;;;9.20;;
239;SDS011;104;53.590;10.004;2023-04-24T11:32:47;13.50;;;4.50;;
239;SDS011;104;53.590;10.004;2023-04-24T11:35:16;11.03;;;5.30;;
239;SDS011;104;53.590;10.004;2023-04-24T11:37:44;6.60;;;4.10;;
239;SDS011;104;53.590;10.004;2023-04-24T11:40:14;6.43;;;4.20;;
239;SDS011;104;53.590;10.004;2023-04-24T11:42:42;10.13;;;5.47;;
239;SDS011;104;53.590;10.004;2023-04-24T11:45:10;7.03;;;4.90;;
239;SDS011;104;53.590;10.004;2023-04-24T11:47:38;7.07;;;4.77;;
239;SDS011;104;53.590;10.004;2023-04-24T11:50:06;12.30;;;4.50;;
239;SDS011;104;53.590;10.004;2023-04-24T11:52:36;9.60;;;4.30;;
239;SDS011;104;53.590;10.004;2023-04-24T11:55:05;11.40;;;5.90;;
239;SDS011;104;53.590;10.004;2023-04-24T11:57:33;11.10;;;5.27;;
239;SDS011;104;53.590;10.004;2023-04-24T12:00:01;10.17;;;5.23;;
239;SDS011;104;53.590;10.004;2023-04-24T12:02:30;8.17;;;4.20;;
239;SDS011;104;53.590;10.004;2023-04-24T12:04:57;6.03;;;4.23;;
239;SDS011;104;53.590;10.004;2023-04-24T12:07:24;24.13;;;12.13;;
239;SDS011;104;53.590;10.004;2023-04-24T12:09:56;17.50;;;10.70;;
239;SDS011;104;53.590;10.004;2023-04-24T12:12:25;9.43;;;6.37;;
239;SDS011;104;53.590;10.004;2023-04-24T12:14:53;4.33;;;3.50;;
239;SDS011;104;53.590;10.004;2023-04-24T12:17:23;12.93;;;5.43;;
239;SDS011;104;53.590;10.004;2023-04-24T12:19:51;14.90;;;8.43;;
239;SDS011;104;53.590;10.004;2023-04-24T12:22:18;9.40;;;5.97;;
239;SDS011;104;53.590;10.004;2023-04-24T12:24:56;6.07;;;4.60;;
239;SDS011;104;53.590;10.004;2023-04-24T12:27:24;12.80;;;5.30;;
239;SDS011;104;53.590;10.004;2023-04-24T12:29:52;11.90;;;5.67;;
239;SDS011;104;53.590;10.004;2023-04-24T12:32:19;8.10;;;4.37;;
239;SDS011;104;53.590;10.004;2023-04-24T12:34:47;7.80;;;4.63;;
239;SDS011;104;53.590;10.004;2023-04-24T12:37:14;14.57;;;9.00;;
239;SDS011;104;53.590;10.004;2023-04-24T12:39:44;13.93;;;7.67;;
239;SDS011;104;53.590;10.004;2023-04-24T12:42:13;16.87;;;9.67;;
239;SDS011;104;53.590;10.004;2023-04-24T12:44:40;9.10;;;6.50;;
239;SDS011;104;53.590;10.004;2023-04-24T12:47:08;11.00;;;5.33;;
239;SDS011;104;53.590;10.004;2023-04-24T12:49:36;21.97;;;5.67;;
239;SDS011;104;53.590;10.004;2023-04-24T12:52:03;6.17;;;4.10;;
239;SDS011;104;53.590;10.004;2023-04-24T12:54:32;4.27;;;3.50;;
239;SDS011;104;53.590;10.004;2023-04-24T12:56:59;11.07;;;6.40;;
239;SDS011;104;53.590;10.004;2023-04-24T12:59:28;5.53;;;4.30;;
239;SDS011;104;53.590;10.004;2023-04-24T13:01:55;6.80;;;4.50;;
239;SDS011;104;53.590;10.004;2023-04-24T13:04:23;26.83;;;8.80;;
239;SDS011;104;53.590;10.004;2023-04-24T13:06:50;5.87;;;3.50;;
239;SDS011;104;53.590;10.004;2023-04-24T13:09:18;8.50;;;4.60;;
239;SDS011;104;53.590;10.004;2023-04-24T13:11:45;13.80;;;4.97;;
239;SDS011;104;53.590;10.004;2023-04-24T13:14:13;8.63;;;3.93;;
239;SDS011;104;53.590;10.004;2023-04-24T13:16:42;10.70;;;4.40;;
239;SDS011;104;53.590;10.004;2023-04-24T13:19:09;4.80;;;3.47;;
239;SDS011;104;53.590;10.004;2023-04-24T13:21:36;9.23;;;4.10;;
239;SDS011;104;53.590;10.004;2023-04-24T13:24:04;10.27;;;4.20;;
239;SDS011;104;53.590;10.004;2023-04-24T13:26:32;12.40;;;3.90;;
239;SDS011;104;53.590;10.004;2023-04-24T13:29:00;6.77;;;3.40;;
239;SDS011;104;53.590;10.004;2023-04-24T13:31:28;7.07;;;4.23;;
239;SDS011;104;53.590;10.004;2023-04-24T13:33:57;4.00;;;3.33;;
239;SDS011;104;53.590;10.004;2023-04-24T13:36:24;7.00;;;3.90;;
239;SDS011;104;53.590;10.004;2023-04-24T13:38:51;16.70;;;4.10;;
239;SDS011;104;53.590;10.004;2023-04-24T13:41:19;16.33;;;3.73;;
239;SDS011;104;53.590;10.004;2023-04-24T13:43:46;10.10;;;3.43;;
239;SDS011;104;53.590;10.004;2023-04-24T13:46:13;13.93;;;5.87;;
239;SDS011;104;53.590;10.004;2023-04-24T13:48:40;8.73;;;3.13;;
239;SDS011;104;53.590;10.004;2023-04-24T13:51:09;11.17;;;4.17;;
239;SDS011;104;53.590;10.004;2023-04-24T13:53:36;12.80;;;3.90;;
239;SDS011;104;53.590;10.004;2023-04-24T13:56:04;10.37;;;5.07;;
239;SDS011;104;53.590;10.004;2023-04-24T13:58:31;12.17;;;5.03;;
239;SDS011;104;53.590;10.004;2023-04-24T14:00:58;6.67;;;3.63;;
239;SDS011;104;53.590;10.004;2023-04-24T14:03:26;6.23;;;3.83;;
239;SDS011;104;53.590;10.004;2023-04-24T14:05:53;6.70;;;4.10;;
239;SDS011;104;53.590;10.004;2023-04-24T14:08:21;11.60;;;5.40;;
239;SDS011;104;53.590;10.004;2023-04-24T14:10:49;7.40;;;4.27;;
239;SDS011;104;53.590;10.004;2023-04-24T14:13:16;6.30;;;3.67;;
239;SDS011;104;53.590;10.004;2023-04-24T14:15:45;7.03;;;3.83;;
239;SDS011;104;53.590;10.004;2023-04-24T14:18:12;11.40;;;4.00;;
239;SDS011;104;53.590;10.004;2023-04-24T14:20:40;9.83;;;5.03;;
239;SDS011;104;53.590;10.004;2023-04-24T14:23:07;8.77;;;4.83;;
239;SDS011;104;53.590;10.004;2023-04-24T14:25:35;22.50;;;10.47;;
239;SDS011;104;53.590;10.004;2023-04-24T14:28:03;14.10;;;6.43;;
239;SDS011;104;53.590;10.004;2023-04-24T14:30:30;16.13;;;6.00;;
239;SDS011;104;53.590;10.004;2023-04-24T14:32:57;16.83;;;8.33;;
239;SDS011;104;53.590;10.004;2023-04-24T14:35:24;5.10;;;4.17;;
239;SDS011;104;53.590;10.004;2023-04-24T14:37:53;10.20;;;5.60;;
239;SDS011;104;53.590;10.004;2023-04-24T14:40:20;8.33;;;5.27;;
239;SDS011;104;53.590;10.004;2023-04-24T14:42:49;12.07;;;7.40;;
239;SDS011;104;53.590;10.004;2023-04-24T14:45:16;18.10;;;10.13;;
239;SDS011;104;53.590;10.004;2023-04-24T14:47:44;10.60;;;5.90;;
239;SDS011;104;53.590;10.004;2023-04-24T14:50:11;12.33;;;6.30;;
239;SDS011;104;53.590;10.004;2023-04-24T14:52:38;8.83;;;5.73;;
239;SDS011;104;53.590;10.004;2023-04-24T14:55:06;7.13;;;4.63;;
239;SDS011;104;53.590;10.004;2023-04-24T14:57:36;6.53;;;4.20;;
239;SDS011;104;53.590;10.004;2023-04-24T15:00:06;14.43;;;7.53;;
239;SDS011;104;53.590;10.004;2023-04-24T15:02:35;9.67;;;4.80;;
239;SDS011;104;53.590;10.004;2023-04-24T15:05:07;16.00;;;7.97;;
239;SDS011;104;53.590;10.004;2023-04-24T15:07:34;17.33;;;9.53;;
239;SDS011;104;53.590;10.004;2023-04-24T15:10:02;16.23;;;7.47;;
239;SDS011;104;53.590;10.004;2023-04-24T15:12:29;9.67;;;4.83;;
239;SDS011;104;53.590;10.004;2023-04-24T15:14:57;25.53;;;11.07;;
239;SDS011;104;53.590;10.004;2023-04-24T15:17:26;10.73;;;6.10;;
239;SDS011;104;53.590;10.004;2023-04-24T15:19:53;7.03;;;4.60;;
239;SDS011;104;53.590;10.004;2023-04-24T15:22:20;6.70;;;4.33;;
239;SDS011;104;53.590;10.004;2023-04-24T15:24:48;19.93;;;12.00;;